createdAt,value
2023-05-25T00:00:19.119Z,22.03
2023-05-25T00:02:48.910Z,26.10
2023-05-25T00:05:18.494Z,23.67
2023-05-25T00:07:45.478Z,23.20
2023-05-25T00:10:12.778Z,30.20
2023-05-25T00:12:40.316Z,24.30
2023-05-25T00:15:07.790Z,23.83
2023-05-25T00:17:37.339Z,22.33
2023-05-25T00:20:07.501Z,25.77
2023-05-25T00:22:37.944Z,27.23
2023-05-25T00:25:06.500Z,24.03
2023-05-25T00:27:33.870Z,24.43
2023-05-25T00:30:00.814Z,36.17
2023-05-25T00:32:27.750Z,23.97
2023-05-25T00:34:55.096Z,26.03
2023-05-25T00:37:22.367Z,26.33
2023-05-25T00:39:49.304Z,29.60
2023-05-25T00:42:16.496Z,32.77
2023-05-25T00:44:43.440Z,30.43
2023-05-25T00:47:11.980Z,33.10
2023-05-25T00:49:38.994Z,31.37
2023-05-25T00:52:06.289Z,31.57
2023-05-25T00:54:35.256Z,26.37
2023-05-25T00:57:06.482Z,30.13
2023-05-25T00:59:43.028Z,35.30
2023-05-25T01:02:16.257Z,35.53
2023-05-25T01:04:54.947Z,28.07
2023-05-25T01:07:25.264Z,40.47
2023-05-25T01:09:58.582Z,32.43
2023-05-25T01:12:28.822Z,26.57
2023-05-25T01:14:57.009Z,37.63
2023-05-25T01:17:24.106Z,39.00
2023-05-25T01:20:08.881Z,40.40
2023-05-25T01:22:38.531Z,39.90
2023-05-25T01:25:14.352Z,33.57
2023-05-25T01:27:46.176Z,38.50
2023-05-25T01:30:14.909Z,38.90
2023-05-25T01:32:43.701Z,40.20
2023-05-25T01:35:11.706Z,29.40
2023-05-25T01:37:48.847Z,35.23
2023-05-25T01:40:16.252Z,38.63
2023-05-25T01:42:43.265Z,38.03
2023-05-25T01:45:12.527Z,33.80
2023-05-25T01:47:58.281Z,38.17
2023-05-25T01:50:34.279Z,41.40
2023-05-25T01:53:09.674Z,38.73
2023-05-25T01:55:56.313Z,39.33
2023-05-25T01:58:25.912Z,37.80
2023-05-25T02:00:53.869Z,43.13
2023-05-25T02:03:21.421Z,38.40
2023-05-25T02:05:48.595Z,38.77
2023-05-25T02:08:15.518Z,41.47
2023-05-25T02:10:42.354Z,33.63
2023-05-25T02:13:09.243Z,43.10
2023-05-25T02:15:36.121Z,34.70
2023-05-25T02:18:03.159Z,34.70
2023-05-25T02:20:30.105Z,36.10
2023-05-25T02:22:56.985Z,50.93
2023-05-25T02:25:23.780Z,32.73
2023-05-25T02:27:50.985Z,31.37
2023-05-25T02:30:17.781Z,37.20
2023-05-25T02:32:44.860Z,35.93
2023-05-25T02:35:12.026Z,39.27
2023-05-25T02:37:39.420Z,45.73
2023-05-25T02:40:06.797Z,42.17
2023-05-25T02:42:33.616Z,40.23
2023-05-25T02:45:00.507Z,32.53
2023-05-25T02:47:27.356Z,43.37
2023-05-25T02:49:54.194Z,33.87
2023-05-25T02:52:21.330Z,38.40
2023-05-25T02:54:48.094Z,35.67
2023-05-25T02:57:14.864Z,30.60
2023-05-25T02:59:41.777Z,31.40
2023-05-25T03:02:08.571Z,31.73
2023-05-25T03:04:38.007Z,30.00
2023-05-25T03:07:05.126Z,34.30
2023-05-25T03:09:32.006Z,35.60
2023-05-25T03:11:58.897Z,30.43
2023-05-25T03:14:25.669Z,31.30
2023-05-25T03:16:53.907Z,29.63
2023-05-25T03:19:21.534Z,36.57
2023-05-25T03:21:48.342Z,33.73
2023-05-25T03:24:15.162Z,31.17
2023-05-25T03:26:41.925Z,37.70
2023-05-25T03:29:08.730Z,43.43
2023-05-25T03:31:36.029Z,36.07
2023-05-25T03:34:03.981Z,29.70
2023-05-25T03:36:33.845Z,32.23
2023-05-25T03:39:01.159Z,42.47
2023-05-25T03:41:28.022Z,34.00
2023-05-25T03:43:54.836Z,30.23
2023-05-25T03:46:21.932Z,35.63
2023-05-25T03:48:48.776Z,33.73
2023-05-25T03:51:16.483Z,42.27
2023-05-25T03:53:43.430Z,39.27
2023-05-25T03:56:13.079Z,30.40
2023-05-25T03:58:39.970Z,35.70
2023-05-25T04:01:06.836Z,36.87
2023-05-25T04:03:34.005Z,38.67
2023-05-25T04:06:02.194Z,36.67
2023-05-25T04:08:29.145Z,41.80
2023-05-25T04:10:56.473Z,36.03
2023-05-25T04:13:23.666Z,35.80
2023-05-25T04:15:51.308Z,31.73
2023-05-25T04:18:19.223Z,36.67
2023-05-25T04:20:47.314Z,37.40
2023-05-25T04:23:14.518Z,28.10
2023-05-25T04:25:42.340Z,38.97
2023-05-25T04:28:09.368Z,37.77
2023-05-25T04:30:36.311Z,32.80
2023-05-25T04:33:03.961Z,36.03
2023-05-25T04:35:31.768Z,40.63
2023-05-25T04:38:02.876Z,37.60
2023-05-25T04:40:30.163Z,32.43
2023-05-25T04:42:57.139Z,42.47
2023-05-25T04:45:24.097Z,36.17
2023-05-25T04:47:51.211Z,33.23
2023-05-25T04:50:18.629Z,29.20
2023-05-25T04:52:45.574Z,36.33
2023-05-25T04:55:12.548Z,29.93
2023-05-25T04:57:39.494Z,33.80
2023-05-25T05:00:09.721Z,41.47
2023-05-25T05:02:36.564Z,34.07
2023-05-25T05:05:03.963Z,32.77
2023-05-25T05:07:31.769Z,31.10
2023-05-25T05:09:58.672Z,41.63
2023-05-25T05:12:25.526Z,33.40
2023-05-25T05:14:53.143Z,37.67
2023-05-25T05:17:20.046Z,31.50
2023-05-25T05:19:47.078Z,35.90
2023-05-25T05:22:15.985Z,33.97
2023-05-25T05:24:42.964Z,34.17
2023-05-25T05:27:10.760Z,30.13
2023-05-25T05:29:37.666Z,29.10
2023-05-25T05:32:04.792Z,33.70
2023-05-25T05:34:31.714Z,30.17
2023-05-25T05:37:00.183Z,34.20
2023-05-25T05:39:28.142Z,38.93
2023-05-25T05:41:55.656Z,34.10
2023-05-25T05:44:25.238Z,32.60
2023-05-25T05:46:53.068Z,31.43
2023-05-25T05:49:19.874Z,34.90
2023-05-25T05:51:50.650Z,37.43
2023-05-25T05:54:17.437Z,32.40
2023-05-25T05:56:44.280Z,32.87
2023-05-25T05:59:11.498Z,28.90
2023-05-25T06:01:38.846Z,33.30
2023-05-25T06:04:06.579Z,34.87
2023-05-25T06:06:35.104Z,33.60
2023-05-25T06:09:03.637Z,44.17
2023-05-25T06:11:31.298Z,36.77
2023-05-25T06:13:58.076Z,34.10
2023-05-25T06:16:25.011Z,32.90
2023-05-25T06:18:51.882Z,35.97
2023-05-25T06:21:18.738Z,38.80
2023-05-25T06:23:45.801Z,32.03
2023-05-25T06:26:12.659Z,31.70
2023-05-25T06:28:39.518Z,29.90
2023-05-25T06:31:08.680Z,38.80
2023-05-25T06:33:35.598Z,29.20
2023-05-25T06:36:02.472Z,31.57
2023-05-25T06:38:29.376Z,29.90
2023-05-25T06:40:56.289Z,32.20
2023-05-25T06:43:23.153Z,29.70
2023-05-25T06:45:50.494Z,30.77
2023-05-25T06:48:17.490Z,36.40
2023-05-25T06:50:46.192Z,34.47
2023-05-25T06:53:13.159Z,34.33
2023-05-25T06:55:40.079Z,36.20
2023-05-25T06:58:06.897Z,33.83
2023-05-25T07:00:33.811Z,33.97
2023-05-25T07:03:01.494Z,30.60
2023-05-25T07:05:28.625Z,34.90
2023-05-25T07:07:55.738Z,30.53
2023-05-25T07:10:23.184Z,33.10
2023-05-25T07:12:50.090Z,29.53
2023-05-25T07:15:16.941Z,33.47
2023-05-25T07:17:44.168Z,31.67
2023-05-25T07:20:13.389Z,33.23
2023-05-25T07:22:40.319Z,25.10
2023-05-25T07:25:07.577Z,32.03
2023-05-25T07:27:34.483Z,27.27
2023-05-25T07:30:01.384Z,38.07
2023-05-25T07:32:28.223Z,24.63
2023-05-25T07:34:55.029Z,29.50
2023-05-25T07:37:21.820Z,32.73
2023-05-25T07:39:48.699Z,28.47
2023-05-25T07:42:23.050Z,33.30
2023-05-25T07:44:49.932Z,33.67
2023-05-25T07:47:16.817Z,31.43
2023-05-25T07:49:43.724Z,28.67
2023-05-25T07:52:10.604Z,31.53
2023-05-25T07:54:40.456Z,27.17
2023-05-25T07:57:07.993Z,31.27
2023-05-25T07:59:35.425Z,26.73
2023-05-25T08:02:03.407Z,31.93
2023-05-25T08:04:33.984Z,32.73
2023-05-25T08:07:01.638Z,31.93
2023-05-25T08:09:28.546Z,30.60
2023-05-25T08:12:07.765Z,36.03
2023-05-25T08:14:42.269Z,25.47
2023-05-25T08:17:09.139Z,25.67
2023-05-25T08:19:36.046Z,24.50
2023-05-25T08:22:03.021Z,26.17
2023-05-25T08:24:29.828Z,24.23
2023-05-25T08:26:56.819Z,26.47
2023-05-25T08:29:23.656Z,22.23
2023-05-25T08:31:51.324Z,23.27
2023-05-25T08:34:18.294Z,32.50
2023-05-25T08:36:45.780Z,28.63
2023-05-25T08:39:13.254Z,35.93
2023-05-25T08:41:45.953Z,25.17
2023-05-25T08:44:14.664Z,23.30
2023-05-25T08:46:41.937Z,23.00
2023-05-25T08:49:10.116Z,23.83
2023-05-25T08:51:39.411Z,27.43
2023-05-25T08:54:12.331Z,25.50
2023-05-25T08:56:50.821Z,20.67
2023-05-25T08:59:37.498Z,21.20
2023-05-25T09:02:21.725Z,22.80
2023-05-25T09:04:48.826Z,28.90
2023-05-25T09:07:16.181Z,22.83
2023-05-25T09:09:43.622Z,23.43
2023-05-25T09:12:10.993Z,20.30
2023-05-25T09:14:38.138Z,19.90
2023-05-25T09:17:05.197Z,19.33
2023-05-25T09:19:32.185Z,25.23
2023-05-25T09:24:31.712Z,23.70
2023-05-25T09:26:59.077Z,19.13
2023-05-25T09:29:29.640Z,17.60
2023-05-25T09:32:00.897Z,20.43
2023-05-25T09:34:34.160Z,22.50
2023-05-25T09:37:11.078Z,17.77
2023-05-25T09:39:38.377Z,26.40
2023-05-25T09:42:06.637Z,25.63
2023-05-25T09:44:33.454Z,17.93
2023-05-25T09:47:00.295Z,18.90
2023-05-25T09:49:27.287Z,24.00
2023-05-25T09:51:54.137Z,23.70
2023-05-25T09:54:26.264Z,19.73
2023-05-25T09:56:54.113Z,19.80
2023-05-25T09:59:23.066Z,29.03
2023-05-25T10:01:56.346Z,16.23
2023-05-25T10:04:23.451Z,23.13
2023-05-25T10:06:53.146Z,23.53
2023-05-25T10:09:21.143Z,21.93
2023-05-25T10:11:51.323Z,20.80
2023-05-25T10:14:24.050Z,21.70
2023-05-25T10:16:54.267Z,14.60
2023-05-25T10:19:32.234Z,23.30
2023-05-25T10:22:19.503Z,26.00
2023-05-25T10:24:52.072Z,23.70
2023-05-25T10:27:27.588Z,20.13
2023-05-25T10:29:57.273Z,25.50
2023-05-25T10:32:24.963Z,27.10
2023-05-25T10:34:53.312Z,22.73
2023-05-25T10:37:20.858Z,25.90
2023-05-25T10:39:49.932Z,25.37
2023-05-25T10:42:18.908Z,31.60
2023-05-25T10:44:46.574Z,21.40
2023-05-25T10:47:16.340Z,18.87
2023-05-25T10:50:23.105Z,22.73
2023-05-25T10:53:05.818Z,20.87
2023-05-25T10:55:51.967Z,20.10
2023-05-25T10:58:20.690Z,20.03
2023-05-25T11:01:08.228Z,18.67
2023-05-25T11:03:44.984Z,24.37
2023-05-25T11:06:22.490Z,29.13
2023-05-25T11:08:59.534Z,17.57
2023-05-25T11:11:47.369Z,17.50
2023-05-25T11:14:31.252Z,18.90
2023-05-25T11:17:05.008Z,16.03
2023-05-25T11:19:52.396Z,24.30
2023-05-25T11:22:21.192Z,21.90
2023-05-25T11:24:52.640Z,22.90
2023-05-25T11:27:32.590Z,21.30
2023-05-25T11:30:00.324Z,18.83
2023-05-25T11:32:28.324Z,22.33
2023-05-25T11:34:57.443Z,15.73
2023-05-25T11:37:26.525Z,17.23
2023-05-25T11:39:53.537Z,18.70
2023-05-25T11:42:22.681Z,14.60
2023-05-25T11:44:49.572Z,22.73
2023-05-25T11:47:22.893Z,14.77
2023-05-25T11:49:50.122Z,19.00
2023-05-25T11:52:19.301Z,13.60
2023-05-25T11:54:47.122Z,19.53
2023-05-25T11:57:24.858Z,23.50
2023-05-25T11:59:53.766Z,15.40
2023-05-25T12:02:21.919Z,17.03
2023-05-25T12:05:03.818Z,17.27
2023-05-25T12:07:34.565Z,12.63
2023-05-25T12:10:09.736Z,21.57
2023-05-25T12:12:50.860Z,14.77
2023-05-25T12:15:22.928Z,15.47
2023-05-25T12:17:51.117Z,17.20
2023-05-25T12:20:19.080Z,16.50
2023-05-25T12:22:47.227Z,17.67
2023-05-25T12:25:18.273Z,11.00
2023-05-25T12:27:45.239Z,15.57
2023-05-25T12:30:12.324Z,15.53
2023-05-25T12:33:01.941Z,17.70
2023-05-25T12:35:31.738Z,18.70
2023-05-25T12:38:19.015Z,17.13
2023-05-25T12:40:46.541Z,13.90
2023-05-25T12:43:14.424Z,19.13
2023-05-25T12:45:42.648Z,12.37
2023-05-25T12:48:10.268Z,13.80
2023-05-25T12:50:37.419Z,12.33
2023-05-25T12:53:05.092Z,20.27
2023-05-25T12:55:33.523Z,17.00
2023-05-25T12:58:05.528Z,13.93
2023-05-25T13:00:40.978Z,16.60
2023-05-25T13:03:08.368Z,14.80
2023-05-25T13:05:39.380Z,15.20
2023-05-25T13:08:07.182Z,14.30
2023-05-25T13:10:34.815Z,9.57
2023-05-25T13:13:02.172Z,10.60
2023-05-25T13:15:29.247Z,13.53
2023-05-25T13:17:58.617Z,13.03
2023-05-25T13:20:26.897Z,12.53
2023-05-25T13:22:55.871Z,19.17
2023-05-25T13:25:22.945Z,12.93
2023-05-25T13:27:51.077Z,10.83
2023-05-25T13:30:18.413Z,11.17
2023-05-25T13:32:45.529Z,15.40
2023-05-25T13:35:19.111Z,14.57
2023-05-25T13:37:46.470Z,13.83
2023-05-25T13:40:14.031Z,13.30
2023-05-25T13:42:41.248Z,11.23
2023-05-25T13:45:08.736Z,11.57
2023-05-25T13:47:35.723Z,10.40
2023-05-25T13:50:02.661Z,12.97
2023-05-25T13:52:29.781Z,13.03
2023-05-25T13:54:56.591Z,11.90
2023-05-25T13:57:23.427Z,10.37
2023-05-25T13:59:50.368Z,12.97
2023-05-25T14:02:17.248Z,8.73
2023-05-25T14:04:44.098Z,8.60
2023-05-25T14:07:11.058Z,9.83
2023-05-25T14:09:38.109Z,9.90
2023-05-25T14:12:05.139Z,10.80
2023-05-25T14:14:33.013Z,9.27
2023-05-25T14:17:01.290Z,13.63
2023-05-25T14:19:28.705Z,10.83
2023-05-25T14:22:11.821Z,7.80
2023-05-25T14:24:40.710Z,10.43
2023-05-25T14:27:07.533Z,10.53
2023-05-25T14:29:34.690Z,9.70
2023-05-25T14:32:02.235Z,7.63
2023-05-25T14:34:29.819Z,6.77
2023-05-25T14:36:56.961Z,11.67
2023-05-25T14:39:23.947Z,7.80
2023-05-25T14:41:50.985Z,7.83
2023-05-25T14:44:17.912Z,12.77
2023-05-25T14:46:44.805Z,7.53
2023-05-25T14:49:11.685Z,7.00
2023-05-25T14:51:38.565Z,6.73
2023-05-25T14:54:07.315Z,9.00
2023-05-25T14:56:34.557Z,12.33
2023-05-25T14:59:01.483Z,9.90
2023-05-25T15:01:29.544Z,7.67
2023-05-25T15:03:57.049Z,10.07
2023-05-25T15:06:24.098Z,7.23
2023-05-25T15:08:51.259Z,7.10
2023-05-25T15:11:18.596Z,14.87
2023-05-25T15:13:46.035Z,25.40
2023-05-25T15:16:14.270Z,11.00
2023-05-25T15:18:41.126Z,9.17
2023-05-25T15:21:08.057Z,9.10
2023-05-25T15:23:35.160Z,11.90
2023-05-25T15:26:04.910Z,7.63
2023-05-25T15:28:31.893Z,9.80
2023-05-25T15:31:00.864Z,7.80
2023-05-25T15:33:43.592Z,10.03
2023-05-25T15:36:15.799Z,8.10
2023-05-25T15:38:44.664Z,8.43
2023-05-25T15:41:16.336Z,8.63
2023-05-25T15:43:50.718Z,12.63
2023-05-25T15:46:17.531Z,6.90
2023-05-25T15:48:44.346Z,11.30
2023-05-25T15:51:11.340Z,9.50
2023-05-25T15:53:38.175Z,7.43
2023-05-25T15:56:05.060Z,9.13
2023-05-25T15:58:34.375Z,11.50
2023-05-25T16:01:01.749Z,14.23
2023-05-25T16:03:29.413Z,10.60
2023-05-25T16:05:56.664Z,8.43
2023-05-25T16:08:23.932Z,10.00
2023-05-25T16:10:50.902Z,12.10
2023-05-25T16:13:17.754Z,7.60
2023-05-25T16:15:44.869Z,13.60
2023-05-25T16:18:12.066Z,7.83
2023-05-25T16:20:38.909Z,6.93
2023-05-25T16:23:08.327Z,15.07
2023-05-25T16:25:35.085Z,11.77
2023-05-25T16:28:01.945Z,12.83
2023-05-25T16:30:28.767Z,6.70
2023-05-25T16:32:55.714Z,7.53
2023-05-25T16:35:22.629Z,8.73
2023-05-25T16:37:49.471Z,7.40
2023-05-25T16:40:16.531Z,8.30
2023-05-25T16:42:43.322Z,16.10
2023-05-25T16:45:10.497Z,11.77
2023-05-25T16:47:37.446Z,8.33
2023-05-25T16:50:05.123Z,12.83
2023-05-25T16:52:32.101Z,8.87
2023-05-25T16:54:59.364Z,7.73
2023-05-25T16:57:26.270Z,10.00
2023-05-25T16:59:53.803Z,9.23
2023-05-25T17:02:20.847Z,10.70
2023-05-25T17:04:47.779Z,13.33
2023-05-25T17:07:14.736Z,10.33
2023-05-25T17:09:41.617Z,9.33
2023-05-25T17:12:08.734Z,8.13
2023-05-25T17:14:35.844Z,11.63
2023-05-25T17:17:02.660Z,9.23
2023-05-25T17:19:29.566Z,12.13
2023-05-25T17:21:56.471Z,12.60
2023-05-25T17:24:23.345Z,9.90
2023-05-25T17:26:51.583Z,9.43
2023-05-25T17:29:18.505Z,9.17
2023-05-25T17:31:47.071Z,9.23
2023-05-25T17:34:15.655Z,8.23
2023-05-25T17:36:42.988Z,8.83
2023-05-25T17:39:09.990Z,12.97
2023-05-25T17:41:36.893Z,12.03
2023-05-25T17:44:03.660Z,12.57
2023-05-25T17:46:30.584Z,13.10
2023-05-25T17:48:57.425Z,22.10
2023-05-25T17:51:24.203Z,10.97
2023-05-25T17:53:51.106Z,11.13
2023-05-25T17:56:18.050Z,11.83
2023-05-25T17:58:47.662Z,12.33
2023-05-25T18:01:15.737Z,9.47
2023-05-25T18:03:43.115Z,15.23
2023-05-25T18:06:10.263Z,11.33
2023-05-25T18:08:37.157Z,13.57
2023-05-25T18:11:04.198Z,9.80
2023-05-25T18:13:31.035Z,13.23
2023-05-25T18:15:57.950Z,20.90
2023-05-25T18:18:24.948Z,7.47
2023-05-25T18:20:54.661Z,8.57
2023-05-25T18:23:22.407Z,13.97
2023-05-25T18:25:49.323Z,11.90
2023-05-25T18:28:16.212Z,15.27
2023-05-25T18:30:43.197Z,9.00
2023-05-25T18:33:10.773Z,10.20
2023-05-25T18:35:38.359Z,19.23
2023-05-25T18:38:06.689Z,14.60
2023-05-25T18:40:33.608Z,13.63
2023-05-25T18:43:00.459Z,10.07
2023-05-25T18:45:27.304Z,8.73
2023-05-25T18:47:54.342Z,15.90
2023-05-25T18:50:21.423Z,10.13
2023-05-25T18:52:51.206Z,9.57
2023-05-25T18:55:19.016Z,8.20
2023-05-25T18:57:46.998Z,8.80
2023-05-25T19:00:14.479Z,10.30
2023-05-25T19:02:41.450Z,10.50
2023-05-25T19:05:11.469Z,10.40
2023-05-25T19:07:51.054Z,9.43
2023-05-25T19:10:25.416Z,14.20
2023-05-25T19:12:52.278Z,9.80
2023-05-25T19:15:19.178Z,11.10
2023-05-25T19:17:46.756Z,11.80
2023-05-25T19:20:14.106Z,15.13
2023-05-25T19:22:41.825Z,15.33
2023-05-25T19:25:08.902Z,9.30
2023-05-25T19:27:35.723Z,9.77
2023-05-25T19:30:02.633Z,11.57
2023-05-25T19:32:29.590Z,15.03
2023-05-25T19:34:56.645Z,14.50
2023-05-25T19:37:23.514Z,12.80
2023-05-25T19:39:50.484Z,10.90
2023-05-25T19:42:17.335Z,14.77
2023-05-25T19:44:46.288Z,8.77
2023-05-25T19:47:13.103Z,11.53
2023-05-25T19:49:39.989Z,10.67
2023-05-25T19:52:07.099Z,16.23
2023-05-25T19:54:34.179Z,13.43
2023-05-25T19:57:01.762Z,9.60
2023-05-25T19:59:30.216Z,9.67
2023-05-25T20:01:57.507Z,10.93
2023-05-25T20:04:24.421Z,15.20
2023-05-25T20:06:52.063Z,12.47
2023-05-25T20:09:19.526Z,10.10
2023-05-25T20:11:46.317Z,10.30
2023-05-25T20:14:13.138Z,10.20
2023-05-25T20:16:40.144Z,11.30
2023-05-25T20:19:07.757Z,10.60
2023-05-25T20:21:35.621Z,11.27
2023-05-25T20:24:03.524Z,16.23
2023-05-25T20:26:30.434Z,8.43
2023-05-25T20:28:57.520Z,12.20
2023-05-25T20:31:27.300Z,12.47
2023-05-25T20:33:54.133Z,12.50
2023-05-25T20:36:21.101Z,9.57
2023-05-25T20:38:47.947Z,11.30
2023-05-25T20:41:14.926Z,16.10
2023-05-25T20:43:41.864Z,7.90
2023-05-25T20:46:11.587Z,11.47
2023-05-25T20:48:39.614Z,12.33
2023-05-25T20:51:06.493Z,8.93
2023-05-25T20:53:33.442Z,9.40
2023-05-25T20:56:01.788Z,12.40
2023-05-25T20:58:28.610Z,16.20
2023-05-25T21:00:55.495Z,9.60
2023-05-25T21:03:22.361Z,9.43
2023-05-25T21:05:49.298Z,11.87
2023-05-25T21:08:16.101Z,12.87
2023-05-25T21:10:43.200Z,15.40
2023-05-25T21:13:10.037Z,13.53
2023-05-25T21:15:36.911Z,18.07
2023-05-25T21:18:05.583Z,11.97
2023-05-25T21:20:33.169Z,10.70
2023-05-25T21:23:00.732Z,14.10
2023-05-25T21:25:27.574Z,9.70
2023-05-25T21:27:56.857Z,12.73
2023-05-25T21:30:24.614Z,11.40
2023-05-25T21:32:51.746Z,11.13
2023-05-25T21:35:18.823Z,14.63
2023-05-25T21:37:45.973Z,9.03
2023-05-25T21:40:14.716Z,12.23
2023-05-25T21:42:41.543Z,13.90
2023-05-25T21:45:08.810Z,17.23
2023-05-25T21:47:35.840Z,9.40
2023-05-25T21:50:02.659Z,13.50
2023-05-25T21:52:29.482Z,9.97
2023-05-25T21:54:56.405Z,13.00
2023-05-25T21:57:23.224Z,12.33
2023-05-25T21:59:50.146Z,8.80
2023-05-25T22:02:17.184Z,10.33
2023-05-25T22:04:44.097Z,10.23
2023-05-25T22:07:11.149Z,15.23
2023-05-25T22:09:37.981Z,20.87
2023-05-25T22:12:05.155Z,13.57
2023-05-25T22:14:31.995Z,11.27
2023-05-25T22:16:58.852Z,12.20
2023-05-25T22:19:25.797Z,10.17
2023-05-25T22:21:53.525Z,13.67
2023-05-25T22:24:20.362Z,13.33
2023-05-25T22:26:47.245Z,10.33
2023-05-25T22:29:14.063Z,8.47
2023-05-25T22:31:41.265Z,9.93
2023-05-25T22:34:08.138Z,12.60
2023-05-25T22:36:34.968Z,11.73
2023-05-25T22:39:01.857Z,10.83
2023-05-25T22:41:31.726Z,10.20
2023-05-25T22:43:58.745Z,10.93
2023-05-25T22:46:26.685Z,11.10
2023-05-25T22:48:53.568Z,10.53
2023-05-25T22:51:20.468Z,12.60
2023-05-25T22:53:47.250Z,9.03
2023-05-25T22:56:14.034Z,13.30
2023-05-25T22:58:41.647Z,17.07
2023-05-25T23:01:08.784Z,10.30
2023-05-25T23:03:35.660Z,11.20
2023-05-25T23:06:02.569Z,11.97
2023-05-25T23:08:29.368Z,7.73
2023-05-25T23:10:56.176Z,12.13
2023-05-25T23:13:24.331Z,10.10
2023-05-25T23:15:51.313Z,12.17
2023-05-25T23:18:18.246Z,14.20
2023-05-25T23:20:45.314Z,9.83
2023-05-25T23:23:12.546Z,18.17
2023-05-25T23:25:39.511Z,15.60
2023-05-25T23:28:06.340Z,11.43
2023-05-25T23:30:33.269Z,10.20
2023-05-25T23:33:00.803Z,9.37
2023-05-25T23:35:27.716Z,12.27
2023-05-25T23:37:54.877Z,10.47
2023-05-25T23:40:21.769Z,9.63
2023-05-25T23:42:48.711Z,10.10
2023-05-25T23:45:15.556Z,14.70
2023-05-25T23:47:42.456Z,11.60
2023-05-25T23:50:09.897Z,8.30
2023-05-25T23:52:36.717Z,11.03
2023-05-25T23:55:03.912Z,9.23
2023-05-25T23:57:30.741Z,8.50
2023-05-25T23:59:57.623Z,8.03
